Terminal Aerodrome Forecast
Issued by NWS

Home | Current Version | Previous Version | Text Only | Print | Product List | Glossary On
Versions: 1 2 3 4 5 6 7 8 9 10 11 12 13 14 15 16 17
000
FTUS41 KGYX 280258 AAA
TAFAUG
TAF AMD
KAUG 280258Z 2803/2824 16006KT 1/4SM FG OVC002
      TEMPO 2811/2813 2SM BR
     FM281300 20004KT 4SM BR OVC008
     FM281800 23006KT P6SM BKN025=

USA.gov is the U.S. government's official web portal to all federal, state and local government web resources and services.